Time;durP1;ratioP1;P1;durP2;ratioP2;P2;SDS_P1;SDS_P2;PMS_P1;PMS_P2;Temp;Humidity;BMP_temperature;BMP_pressure;BME280_temperature;BME280_humidity;BME280_pressure;Samples;Min_cycle;Max_cycle;Signal;HPM_P1;HPM_P2
2021/05/18 00:00:54;;;;;;;25.10;11.02;;;;;;;7.67;100.00;100903.56;3604859;39;20440;-61
2021/05/18 00:03:20;;;;;;;22.27;11.00;;;;;;;7.65;100.00;100916.19;3604083;39;20063;-61
2021/05/18 00:05:49;;;;;;;25.80;12.10;;;;;;;7.53;100.00;100909.94;3603584;39;20043;-61
2021/05/18 00:08:16;;;;;;;27.92;11.68;;;;;;;7.54;100.00;100918.84;3604704;39;20053;-61
2021/05/18 00:13:32;;;;;;;23.60;10.88;;;;;;;7.44;100.00;100916.00;3604824;39;20062;-61
2021/05/18 00:16:00;;;;;;;27.40;10.93;;;;;;;7.43;100.00;100913.44;3604825;39;20044;-61
2021/05/18 00:18:28;;;;;;;31.15;12.20;;;;;;;7.38;100.00;100911.09;3605313;39;20151;-61
2021/05/18 00:20:54;;;;;;;20.77;10.57;;;;;;;7.40;100.00;100914.50;3605852;39;20044;-61
2021/05/18 00:23:20;;;;;;;27.65;11.63;;;;;;;7.37;100.00;100917.41;3601495;39;20038;-61
2021/05/18 00:25:47;;;;;;;23.92;11.43;;;;;;;7.29;100.00;100909.13;3605020;39;20277;-61
2021/05/18 00:28:13;;;;;;;20.88;11.32;;;;;;;7.32;100.00;100914.25;3604341;39;20103;-62
2021/05/18 00:30:41;;;;;;;26.13;11.13;;;;;;;7.26;100.00;100915.53;3603312;39;20052;-62
2021/05/18 00:33:12;;;;;;;27.50;12.27;;;;;;;7.28;100.00;100918.94;3602952;39;20383;-61
2021/05/18 00:35:38;;;;;;;20.73;10.07;;;;;;;7.26;100.00;100914.66;3603949;39;20076;-61
2021/05/18 00:38:05;;;;;;;28.85;11.50;;;;;;;7.17;100.00;100921.59;3605558;39;20047;-61
2021/05/18 00:40:31;;;;;;;21.02;11.48;;;;;;;7.26;100.00;100923.56;3605149;39;20052;-62
2021/05/18 00:42:57;;;;;;;19.73;10.88;;;;;;;7.30;100.00;100922.38;3603427;39;20054;-61
2021/05/18 00:45:29;;;;;;;27.20;11.45;;;;;;;7.27;100.00;100927.09;3604570;39;20051;-61
2021/05/18 00:47:56;;;;;;;22.48;11.40;;;;;;;7.33;100.00;100927.50;3606650;39;20301;-61
2021/05/18 00:50:22;;;;;;;20.50;10.68;;;;;;;7.52;100.00;100926.13;3604809;39;20039;-61
2021/05/18 00:52:48;;;;;;;20.70;11.27;;;;;;;7.46;100.00;100929.28;3603379;39;20355;-62
2021/05/18 00:55:20;;;;;;;26.15;12.27;;;;;;;7.53;100.00;100934.03;3604930;39;20136;-61
2021/05/18 01:00:31;;;;;;;22.75;12.70;;;;;;;7.60;100.00;100934.47;3605236;39;20046;-61
2021/05/18 01:02:58;;;;;;;30.25;13.10;;;;;;;7.59;100.00;100938.09;3605132;39;20052;-61
2021/05/18 01:06:18;;;;;;;29.38;12.18;;;;;;;7.64;100.00;100935.94;3605107;39;20058;-61
2021/05/18 01:08:10;;;;;;;31.60;12.65;;;;;;;7.73;100.00;100929.03;3605096;39;20031;-61
2021/05/18 01:10:36;;;;;;;29.70;13.10;;;;;;;7.72;100.00;100928.16;3605332;39;20140;-61
2021/05/18 01:13:02;;;;;;;28.90;13.48;;;;;;;7.71;100.00;100929.16;3604011;39;20047;-61
2021/05/18 01:15:28;;;;;;;28.95;14.48;;;;;;;7.70;100.00;100931.94;3604899;39;20059;-61
2021/05/18 01:17:54;;;;;;;29.92;13.52;;;;;;;7.83;100.00;100937.22;3603712;39;20052;-61
2021/05/18 01:20:22;;;;;;;27.92;13.75;;;;;;;7.86;100.00;100937.84;3604406;39;20047;-61
2021/05/18 01:22:49;;;;;;;29.20;12.93;;;;;;;8.00;100.00;100942.16;3603821;39;20096;-61
2021/05/18 01:25:18;;;;;;;29.70;12.18;;;;;;;7.95;100.00;100941.66;3604758;39;20116;-61
2021/05/18 01:27:44;;;;;;;21.10;11.98;;;;;;;8.02;100.00;100945.59;3604981;39;20073;-61
2021/05/18 01:30:11;;;;;;;31.88;12.75;;;;;;;8.03;100.00;100941.91;3604649;39;20048;-62
2021/05/18 01:32:40;;;;;;;25.40;12.68;;;;;;;7.88;100.00;100938.56;3602756;39;20059;-61
2021/05/18 01:35:08;;;;;;;30.45;14.07;;;;;;;7.88;100.00;100935.06;3602923;39;20128;-61
2021/05/18 01:37:34;;;;;;;26.83;13.30;;;;;;;7.91;100.00;100937.50;3605475;39;21133;-61
2021/05/18 01:40:13;;;;;;;37.03;13.35;;;;;;;7.86;100.00;100937.84;3604955;39;20129;-61
2021/05/18 01:42:46;;;;;;;25.13;12.75;;;;;;;7.72;100.00;100940.72;3603189;39;20055;-61
2021/05/18 01:45:14;;;;;;;29.48;13.40;;;;;;;7.64;100.00;100935.94;3604758;39;20048;-62
2021/05/18 01:47:45;;;;;;;27.58;13.90;;;;;;;7.59;100.00;100939.94;3604469;39;20126;-61
2021/05/18 01:50:12;;;;;;;29.20;14.00;;;;;;;7.59;100.00;100939.94;3603758;39;20044;-61
2021/05/18 01:52:38;;;;;;;31.42;14.90;;;;;;;7.55;100.00;100941.97;3603853;39;20140;-61
2021/05/18 01:55:06;;;;;;;29.45;13.85;;;;;;;7.57;100.00;100945.41;3604061;39;20044;-61
2021/05/18 01:57:32;;;;;;;36.67;15.13;;;;;;;7.59;100.00;100937.25;3604176;39;20116;-60
2021/05/18 01:59:58;;;;;;;35.92;15.68;;;;;;;7.66;100.00;100947.38;3604688;39;20356;-61
2021/05/18 02:02:24;;;;;;;38.80;14.43;;;;;;;7.69;100.00;100952.50;3604640;39;20042;-61
2021/05/18 02:04:52;;;;;;;34.88;15.13;;;;;;;7.72;100.00;100944.25;3603923;39;20072;-61
2021/05/18 02:07:20;;;;;;;30.33;14.90;;;;;;;7.79;100.00;100935.72;3604027;39;20051;-61
2021/05/18 02:09:46;;;;;;;34.20;14.80;;;;;;;7.91;100.00;100942.00;3606096;39;20400;-61
2021/05/18 02:12:13;;;;;;;30.27;14.68;;;;;;;7.87;100.00;100938.69;3605659;39;20058;-61
2021/05/18 02:14:41;;;;;;;31.23;14.30;;;;;;;7.95;100.00;100940.78;3605299;39;20126;-61
2021/05/18 02:17:15;;;;;;;31.92;15.07;;;;;;;7.93;100.00;100940.91;3604359;39;20028;-61
2021/05/18 02:19:50;;;;;;;30.77;14.40;;;;;;;7.97;100.00;100942.38;3605182;39;20051;-61
2021/05/18 02:25:03;;;;;;;33.00;15.77;;;;;;;8.06;100.00;100949.72;3586821;39;20039;-61
2021/05/18 02:27:31;;;;;;;30.30;16.30;;;;;;;8.03;100.00;100941.91;3605888;39;20051;-61
2021/05/18 02:29:58;;;;;;;39.25;16.67;;;;;;;8.03;100.00;100941.91;3604949;39;20039;-61
2021/05/18 02:32:26;;;;;;;31.98;15.70;;;;;;;8.06;100.00;100943.50;3605924;39;20074;-62
2021/05/18 02:34:52;;;;;;;33.03;16.52;;;;;;;8.09;100.00;100939.75;3604406;39;20051;-61
2021/05/18 02:37:18;;;;;;;31.38;15.38;;;;;;;8.06;100.00;100936.31;3605076;39;20054;-61
2021/05/18 02:39:45;;;;;;;32.80;15.25;;;;;;;8.09;100.00;100937.06;3603975;39;20381;-61
2021/05/18 02:42:11;;;;;;;31.42;14.95;;;;;;;8.13;100.00;100941.22;3605927;39;20048;-61
2021/05/18 02:44:42;;;;;;;33.03;16.75;;;;;;;8.15;100.00;100933.91;3605449;39;20044;-61
2021/05/18 02:49:52;;;;;;;37.63;16.73;;;;;;;8.19;100.00;100935.38;3606292;39;20081;-61
2021/05/18 02:52:19;;;;;;;43.67;16.85;;;;;;;8.24;100.00;100939.41;3605117;39;20051;-61
2021/05/18 02:54:48;;;;;;;41.10;17.52;;;;;;;8.15;100.00;100941.94;3604952;39;20648;-61
2021/05/18 02:57:18;;;;;;;;;;;;;;;8.14;100.00;100942.91;3605122;39;20121;-61
2021/05/18 02:59:45;;;;;;;41.53;17.25;;;;;;;8.15;100.00;100940.09;3605203;39;19936;-62
2021/05/18 03:02:43;;;;;;;38.45;18.30;;;;;;;8.22;100.00;100946.72;3634512;22;20395;-61
2021/05/18 03:05:10;;;;;;;34.95;16.52;;;;;;;8.20;100.00;100945.09;3554245;40;20054;-61
2021/05/18 03:07:36;;;;;;;38.83;17.40;;;;;;;8.19;100.00;100948.78;3560648;40;20074;-61
2021/05/18 03:10:04;;;;;;;40.38;17.60;;;;;;;8.22;100.00;100945.88;3560894;40;20041;-61
2021/05/18 03:12:30;;;;;;;31.38;16.75;;;;;;;8.21;100.00;100944.16;3560641;40;20052;-62
2021/05/18 03:14:57;;;;;;;40.72;17.92;;;;;;;8.28;100.00;100950.75;3559395;40;20049;-60
2021/05/18 03:17:24;;;;;;;37.95;20.17;;;;;;;8.28;100.00;100947.22;3559920;40;20127;-61
2021/05/18 03:19:50;;;;;;;43.53;19.02;;;;;;;8.25;100.00;100953.66;3560176;40;20048;-63
2021/05/18 03:22:16;;;;;;;35.05;17.45;;;;;;;8.30;100.00;100948.78;3561901;40;20635;-61
2021/05/18 03:24:42;;;;;;;45.85;19.52;;;;;;;8.30;100.00;100943.41;3559314;40;20042;-61
2021/05/18 03:27:09;;;;;;;41.33;19.70;;;;;;;8.37;100.00;100943.81;3559342;40;20062;-61
2021/05/18 03:29:36;;;;;;;36.10;18.67;;;;;;;8.34;100.00;100952.09;3560095;40;20073;-61
2021/05/18 03:34:47;;;;;;;37.75;18.83;;;;;;;8.30;100.00;100954.16;3559000;40;20083;-61
2021/05/18 03:37:18;;;;;;;38.22;21.15;;;;;;;8.33;100.00;100953.06;3559774;40;20416;-61
2021/05/18 03:39:46;;;;;;;46.67;20.58;;;;;;;8.35;100.00;100951.13;3560692;40;20068;-61
2021/05/18 03:42:15;;;;;;;37.45;20.13;;;;;;;8.47;100.00;100949.34;3557256;40;20038;-61
2021/05/18 03:44:50;;;;;;;35.65;18.95;;;;;;;8.54;100.00;100950.59;3559167;40;20282;-61
2021/05/18 03:52:54;;;;;;;38.10;18.52;;;;;;;8.59;100.00;100953.75;3559502;40;20344;-61
2021/05/18 03:58:38;;;;;;;37.08;19.35;;;;;;;8.68;100.00;100958.38;3557853;40;20142;-61
2021/05/18 04:03:53;;;;;;;39.38;18.42;;;;;;;8.59;100.00;100967.16;3561948;40;20403;-61
2021/05/18 04:11:53;;;;;;;48.45;20.83;;;;;;;8.57;100.00;100959.22;3571114;40;20414;-61
2021/05/18 04:17:04;;;;;;;38.50;19.27;;;;;;;8.55;100.00;100963.88;3568114;40;20052;-60
2021/05/18 04:19:35;;;;;;;46.92;21.73;;;;;;;8.63;100.00;100968.63;3569593;40;20033;-61
2021/05/18 04:22:17;;;;;;;42.88;21.08;;;;;;;8.66;100.00;100967.53;3568316;40;20061;-61
2021/05/18 04:25:01;;;;;;;41.40;20.60;;;;;;;8.58;100.00;100965.44;3568633;40;20042;-61
2021/05/18 04:38:46;;;;;;;41.13;19.58;;;;;;;8.82;100.00;100977.91;3557874;40;20069;-61
2021/05/18 04:41:21;;;;;;;37.17;19.92;;;;;;;8.75;100.00;100981.06;3568239;40;20053;-61
2021/05/18 04:49:49;;;;;;;36.95;20.45;;;;;;;8.95;100.00;100997.41;3568765;40;20411;-61
2021/05/18 04:52:18;;;;;;;;;;;;;;;8.97;100.00;101000.00;3569251;40;20064;-61
2021/05/18 05:00:16;;;;;;;38.15;21.05;;;;;;;8.97;100.00;101006.22;3567250;40;20166;-61
2021/05/18 05:08:13;;;;;;;41.97;22.20;;;;;;;8.93;100.00;101007.44;3559903;40;20338;-61
2021/05/18 05:16:07;;;;;;;41.03;24.10;;;;;;;8.94;100.00;101015.34;3557705;40;20543;-61
2021/05/18 05:18:33;;;;;;;45.58;24.58;;;;;;;8.99;100.00;101015.00;3556612;40;20408;-61
2021/05/18 05:20:59;;;;;;;44.20;24.50;;;;;;;8.99;100.00;101016.81;3558720;40;20058;-61
2021/05/18 05:25:53;;;;;;;42.95;25.92;;;;;;;9.08;100.00;101022.34;3610827;22;20369;-62
2021/05/18 05:28:19;;;;;;;53.78;26.75;;;;;;;9.06;100.00;101024.28;3583054;40;20147;-61
2021/05/18 05:30:45;;;;;;;52.10;26.02;;;;;;;9.14;100.00;101022.81;3582559;40;20052;-60
2021/05/18 05:33:11;;;;;;;48.47;26.85;;;;;;;9.16;100.00;101028.88;3582775;40;20092;-61
2021/05/18 05:35:37;;;;;;;55.50;27.85;;;;;;;9.14;100.00;101022.81;3583633;40;20102;-62
2021/05/18 05:38:05;;;;;;;51.88;26.05;;;;;;;9.17;100.00;101023.44;3581796;40;20060;-61
2021/05/18 05:40:31;;;;;;;44.75;26.58;;;;;;;9.18;100.00;101024.28;3584245;40;20041;-61
2021/05/18 05:42:58;;;;;;;49.53;28.30;;;;;;;9.22;100.00;101028.44;3581212;40;20482;-62
2021/05/18 05:45:24;;;;;;;47.60;27.80;;;;;;;9.21;100.00;101032.09;3583018;40;20149;-61
2021/05/18 05:47:51;;;;;;;46.72;27.38;;;;;;;9.24;100.00;101030.00;3584710;40;20066;-62
2021/05/18 05:50:17;;;;;;;44.72;25.60;;;;;;;9.56;100.00;101028.38;3584410;40;20060;-62
2021/05/18 05:52:43;;;;;;;45.35;25.42;;;;;;;9.73;100.00;101033.22;3584280;40;20040;-62
2021/05/18 05:55:11;;;;;;;35.40;22.98;;;;;;;9.93;100.00;101042.31;3586285;40;20426;-62
2021/05/18 05:57:37;;;;;;;42.85;24.17;;;;;;;10.16;100.00;101032.31;3585631;40;20327;-62
2021/05/18 06:00:08;;;;;;;43.20;23.13;;;;;;;10.10;100.00;101032.84;3586115;40;20033;-63
2021/05/18 06:02:34;;;;;;;44.28;24.98;;;;;;;9.74;100.00;101039.44;3585507;40;20121;-62
2021/05/18 06:05:00;;;;;;;44.13;23.77;;;;;;;9.98;100.00;101040.09;3585741;40;20149;-62
2021/05/18 06:07:26;;;;;;;40.22;25.90;;;;;;;9.99;100.00;101052.56;3583892;40;20050;-62
2021/05/18 06:09:56;;;;;;;38.40;23.83;;;;;;;9.76;100.00;101042.84;3586043;40;20040;-62
2021/05/18 06:12:32;;;;;;;41.67;24.48;;;;;;;9.79;100.00;101047.97;3584387;40;20391;-62
2021/05/18 06:15:21;;;;;;;41.28;24.20;;;;;;;10.24;100.00;101050.50;3576395;40;20036;-62
2021/05/18 06:18:10;;;;;;;;;;;;;;;10.34;100.00;101050.63;3587126;40;20052;-62
2021/05/18 06:34:38;;;;;;;41.05;24.52;;;;;;;11.06;100.00;101057.03;3585576;40;20056;-62
2021/05/18 06:37:27;;;;;;;40.25;24.33;;;;;;;11.14;100.00;101054.47;3584873;40;20051;-62
2021/05/18 06:42:41;;;;;;;40.28;25.48;;;;;;;10.96;100.00;101066.88;3583632;40;19963;-62
2021/05/18 06:47:52;;;;;;;42.25;25.92;;;;;;;11.66;100.00;101070.56;3582824;40;20055;-63
2021/05/18 06:50:29;;;;;;;40.00;24.10;;;;;;;11.89;100.00;101073.84;3584669;40;20037;-62
2021/05/18 06:52:56;;;;;;;37.17;23.83;;;;;;;11.92;100.00;101076.31;3584848;40;20052;-63
2021/05/18 06:55:26;;;;;;;34.60;22.17;;;;;;;11.87;100.00;101070.47;3584297;40;20300;-62
2021/05/18 06:57:58;;;;;;;38.78;24.10;;;;;;;11.88;100.00;101074.00;3586149;40;20049;-62
2021/05/18 07:00:24;;;;;;;39.58;23.42;;;;;;;11.74;100.00;101072.56;3585130;40;20389;-62
2021/05/18 07:02:52;;;;;;;34.88;23.23;;;;;;;11.99;100.00;101081.16;3581553;40;20048;-63
2021/05/18 07:05:26;;;;;;;35.58;23.35;;;;;;;11.48;100.00;101078.44;3584657;40;20153;-62
2021/05/18 07:07:58;;;;;;;33.20;22.77;;;;;;;11.90;100.00;101091.75;3585130;40;20388;-62
2021/05/18 07:10:24;;;;;;;36.53;23.83;;;;;;;11.75;100.00;101096.69;3585354;40;20072;-62
2021/05/18 07:12:50;;;;;;;39.70;24.88;;;;;;;11.61;100.00;101094.38;3583455;40;20048;-62
2021/05/18 07:15:17;;;;;;;40.60;24.70;;;;;;;11.75;100.00;101102.09;3585488;40;20056;-62
2021/05/18 07:17:43;;;;;;;40.95;23.63;;;;;;;11.85;100.00;101102.13;3585483;40;20331;-62
2021/05/18 07:20:09;;;;;;;36.50;22.48;;;;;;;11.83;100.00;101101.41;3585886;40;20403;-63
2021/05/18 07:22:36;;;;;;;39.40;22.42;;;;;;;12.27;100.00;101106.47;3584712;40;20069;-63
2021/05/18 07:25:03;;;;;;;39.42;23.60;;;;;;;12.02;100.00;101110.56;3584620;40;20415;-62
2021/05/18 07:27:29;;;;;;;35.35;22.83;;;;;;;12.10;100.00;101110.69;3585348;40;20094;-62
2021/05/18 07:29:55;;;;;;;37.22;22.88;;;;;;;11.99;100.00;101116.25;3585390;40;20301;-62
2021/05/18 07:32:21;;;;;;;33.80;23.30;;;;;;;12.05;100.00;101112.97;3584839;40;20043;-62
2021/05/18 07:34:48;;;;;;;36.67;23.55;;;;;;;12.02;100.00;101113.25;3583003;40;20616;-62
2021/05/18 07:37:15;;;;;;;34.85;22.75;;;;;;;12.23;100.00;101116.72;3584524;40;20060;-62
2021/05/18 07:39:42;;;;;;;32.22;21.85;;;;;;;12.40;100.00;101117.00;3585897;40;20044;-62
2021/05/18 07:42:08;;;;;;;35.80;21.25;;;;;;;12.32;100.00;101123.06;3584201;40;20423;-62
2021/05/18 07:44:35;;;;;;;35.30;21.35;;;;;;;12.43;100.00;101122.94;3585467;40;20071;-62
2021/05/18 07:47:01;;;;;;;34.30;20.30;;;;;;;12.92;100.00;101124.75;3583956;40;20431;-63
2021/05/18 07:49:31;;;;;;;31.50;19.88;;;;;;;13.30;100.00;101125.66;3586185;40;20316;-62
2021/05/18 08:00:34;;;;;;;27.83;19.13;;;;;;;13.03;100.00;101129.13;3571064;40;20157;-63
2021/05/18 08:05:45;;;;;;;36.70;21.70;;;;;;;12.49;100.00;101129.63;3585370;40;20510;-62
2021/05/18 08:08:11;;;;;;;36.95;21.05;;;;;;;12.44;100.00;101129.22;3584801;40;20060;-62
2021/05/18 08:10:46;;;;;;;28.02;18.98;;;;;;;12.51;100.00;101130.31;3583830;40;20055;-62
2021/05/18 08:13:13;;;;;;;32.88;20.73;;;;;;;12.55;100.00;101131.75;3584134;40;20049;-62
2021/05/18 08:16:09;;;;;;;32.38;20.45;;;;;;;12.46;100.00;101126.38;3584792;40;20052;-62
2021/05/18 08:21:53;;;;;;;30.98;20.10;;;;;;;13.15;100.00;101122.59;3585289;40;20060;-62
2021/05/18 10:36:30;;;;;;;14.15;9.73;;;;;;;15.58;100.00;101135.31;3576037;40;20053;-62
2021/05/18 10:39:20;;;;;;;11.50;8.55;;;;;;;15.87;100.00;101133.25;3575887;40;20037;-62
2021/05/18 10:41:47;;;;;;;13.68;10.35;;;;;;;16.23;100.00;101133.84;3575781;40;20064;-62
2021/05/18 10:44:13;;;;;;;14.93;10.35;;;;;;;16.18;100.00;101135.38;3575194;40;20041;-61
2021/05/18 10:46:48;;;;;;;15.35;11.05;;;;;;;16.59;100.00;101133.59;3574998;40;20053;-62
2021/05/18 10:49:14;;;;;;;12.02;9.48;;;;;;;16.79;100.00;101133.25;3576602;40;20363;-62
2021/05/18 10:51:49;;;;;;;13.30;9.63;;;;;;;16.21;100.00;101137.75;3575063;40;20041;-62
2021/05/18 10:54:26;;;;;;;10.43;7.72;;;;;;;16.65;100.00;101140.19;3576597;40;20602;-62
2021/05/18 10:57:11;;;;;;;13.60;8.85;;;;;;;17.25;100.00;101128.09;3576879;40;20061;-62
2021/05/18 10:59:39;;;;;;;9.75;7.57;;;;;;;17.04;100.00;101131.38;3576195;40;20088;-61
2021/05/18 11:02:09;;;;;;;12.57;8.50;;;;;;;17.25;100.00;101138.97;3573391;40;20048;-62
2021/05/18 11:04:36;;;;;;;12.73;8.43;;;;;;;17.56;100.00;101132.78;3575017;40;20100;-62
2021/05/18 11:07:05;;;;;;;11.77;7.00;;;;;;;17.93;100.00;101130.44;3573873;40;20053;-61
2021/05/18 11:09:32;;;;;;;10.40;7.35;;;;;;;18.19;100.00;101141.03;3574042;40;20081;-62
2021/05/18 11:12:01;;;;;;;11.30;5.88;;;;;;;17.84;100.00;101138.63;3575513;40;20037;-61
2021/05/18 11:14:42;;;;;;;6.07;5.47;;;;;;;18.36;100.00;101136.34;3574667;40;20064;-62
2021/05/18 11:17:22;;;;;;;8.80;6.10;;;;;;;17.98;93.42;101137.06;3572724;40;20383;-61
2021/05/18 11:20:07;;;;;;;10.20;7.05;;;;;;;18.20;100.00;101132.69;3570399;40;20053;-61
2021/05/18 11:25:41;;;;;;;8.20;6.88;;;;;;;18.21;100.00;101126.22;3572039;40;20052;-62
2021/05/18 11:28:09;;;;;;;10.07;7.17;;;;;;;18.11;100.00;101130.16;3568040;40;20150;-61
2021/05/18 11:30:36;;;;;;;9.60;6.72;;;;;;;17.78;99.62;101139.31;3572379;40;20047;-62
2021/05/18 11:33:03;;;;;;;8.38;7.43;;;;;;;16.76;100.00;101145.28;3571162;40;20035;-62
2021/05/18 11:35:30;;;;;;;9.35;6.95;;;;;;;15.95;100.00;101146.84;3567344;40;20378;-61
2021/05/18 11:38:01;;;;;;;8.80;6.70;;;;;;;15.92;100.00;101152.63;3572320;40;20033;-61
2021/05/18 11:40:27;;;;;;;7.35;5.57;;;;;;;15.99;100.00;101153.66;3570711;40;20053;-62
2021/05/18 11:42:53;;;;;;;5.72;4.75;;;;;;;15.77;100.00;101155.91;3569207;40;20082;-62
2021/05/18 11:45:20;;;;;;;5.85;4.63;;;;;;;16.28;100.00;101160.50;3571966;40;20086;-61
2021/05/18 11:47:50;;;;;;;6.28;4.95;;;;;;;16.60;100.00;101157.00;3571677;40;20073;-62
2021/05/18 11:50:22;;;;;;;8.32;6.03;;;;;;;16.69;100.00;101162.47;3572318;40;20334;-61
2021/05/18 11:52:48;;;;;;;6.32;5.28;;;;;;;17.46;100.00;101154.75;3568596;40;20049;-62
2021/05/18 11:55:24;;;;;;;6.65;5.22;;;;;;;17.69;94.08;101156.72;3569880;40;20407;-61
2021/05/18 11:57:52;;;;;;;7.93;5.72;;;;;;;17.31;100.00;101164.66;3574698;40;20052;-62
2021/05/18 12:00:23;;;;;;;10.68;6.60;;;;;;;16.74;100.00;101163.66;3570948;40;20053;-62
2021/05/18 12:02:59;;;;;;;7.07;5.63;;;;;;;16.59;100.00;101162.59;3573725;40;20124;-61
2021/05/18 12:05:25;;;;;;;7.78;5.68;;;;;;;16.63;100.00;101166.69;3571495;40;20053;-62
2021/05/18 12:07:51;;;;;;;8.45;5.68;;;;;;;16.81;100.00;101161.97;3576682;40;20053;-62
2021/05/18 12:10:27;;;;;;;8.07;6.43;;;;;;;16.90;100.00;101167.41;3576396;40;20059;-62
2021/05/18 12:12:53;;;;;;;9.40;5.85;;;;;;;16.47;100.00;101167.50;3575568;40;20060;-62
2021/05/18 12:15:19;;;;;;;8.32;6.47;;;;;;;16.39;100.00;101171.06;3569358;40;20045;-62
2021/05/18 12:17:45;;;;;;;7.88;6.10;;;;;;;16.77;100.00;101171.47;3569313;40;20057;-62
2021/05/18 12:20:16;;;;;;;10.20;6.35;;;;;;;16.96;100.00;101172.16;3571786;40;20054;-62
2021/05/18 12:22:42;;;;;;;9.20;5.95;;;;;;;17.59;100.00;101166.97;3573271;40;20063;-62
2021/05/18 12:25:10;;;;;;;9.10;6.55;;;;;;;17.66;100.00;101170.69;3570407;40;20417;-62
2021/05/18 12:27:45;;;;;;;9.93;5.63;;;;;;;17.10;100.00;101171.47;3572370;40;20044;-61
2021/05/18 12:30:12;;;;;;;5.63;4.50;;;;;;;17.21;100.00;101170.28;3572664;40;20104;-62
2021/05/18 12:32:47;;;;;;;6.32;4.20;;;;;;;17.67;100.00;101169.66;3570371;40;20137;-62
2021/05/18 12:35:19;;;;;;;7.00;5.13;;;;;;;17.13;100.00;101178.44;3571036;40;20261;-62
2021/05/18 12:37:47;;;;;;;9.30;4.97;;;;;;;17.12;100.00;101179.47;3571019;40;20146;-61
2021/05/18 12:40:16;;;;;;;7.78;4.25;;;;;;;17.33;100.00;101171.63;3571584;40;20045;-62
2021/05/18 12:42:43;;;;;;;6.78;4.25;;;;;;;17.60;100.00;101174.13;3570933;40;20053;-62
2021/05/18 12:45:12;;;;;;;5.47;4.13;;;;;;;16.74;100.00;101184.53;3569514;40;20113;-62
2021/05/18 12:47:39;;;;;;;6.25;4.72;;;;;;;16.01;100.00;101177.94;3571199;40;20045;-61
2021/05/18 12:50:08;;;;;;;6.50;4.57;;;;;;;16.41;100.00;101185.34;3570786;40;20089;-61
2021/05/18 12:52:38;;;;;;;6.78;3.90;;;;;;;16.69;100.00;101185.03;3570731;40;20416;-62
2021/05/18 12:57:30;;;;;;;6.03;4.43;;;;;;;16.81;100.00;101183.72;3590559;22;20402;-62
2021/05/18 13:00:00;;;;;;;7.75;4.35;;;;;;;16.75;100.00;101189.78;3590828;39;20121;-63
2021/05/18 13:02:35;;;;;;;4.93;3.50;;;;;;;16.58;100.00;101190.81;3588461;39;20565;-62
2021/05/18 13:05:05;;;;;;;5.82;3.42;;;;;;;16.43;100.00;101188.75;3589421;40;20614;-62
2021/05/18 13:10:28;;;;;;;5.75;3.20;;;;;;;16.86;100.00;101185.03;3618442;22;20069;-62
2021/05/18 13:13:00;;;;;;;7.63;3.63;;;;;;;16.85;100.00;101186.91;3584547;39;20036;-61
2021/05/18 13:15:26;;;;;;;5.57;3.30;;;;;;;16.88;100.00;101196.66;3589032;39;20054;-62
2021/05/18 13:17:55;;;;;;;5.13;3.45;;;;;;;16.92;100.00;101187.97;3588032;39;20049;-63
2021/05/18 13:20:22;;;;;;;5.72;4.00;;;;;;;16.54;100.00;101186.72;3589071;39;20156;-62
2021/05/18 13:28:05;;;;;;;7.30;2.70;;;;;;;16.54;100.00;101197.59;3580632;39;20122;-61
2021/05/18 13:30:33;;;;;;;6.35;3.20;;;;;;;16.53;100.00;101194.00;3581476;39;20049;-62
2021/05/18 13:32:59;;;;;;;4.30;2.50;;;;;;;16.76;100.00;101199.66;3581354;39;20036;-62
2021/05/18 13:35:28;;;;;;;3.90;2.58;;;;;;;16.68;100.00;101196.06;3579348;39;20346;-62
2021/05/18 13:37:54;;;;;;;;;;;;;;;16.78;100.00;101199.47;3579345;39;20041;-62
2021/05/18 13:40:20;;;;;;;6.30;3.20;;;;;;;17.09;100.00;101194.28;3575286;39;19996;-61
2021/05/18 13:42:50;;;;;;;4.60;3.28;;;;;;;17.80;100.00;101186.28;3578515;39;20037;-61
2021/05/18 13:45:18;;;;;;;4.15;3.17;;;;;;;18.67;98.05;101184.50;3577894;39;20045;-62
2021/05/18 13:47:44;;;;;;;4.38;3.17;;;;;;;18.77;95.69;101190.56;3578957;39;20037;-62
2021/05/18 13:50:11;;;;;;;5.80;2.78;;;;;;;19.14;95.33;101188.03;3575239;39;20045;-61
2021/05/18 13:52:37;;;;;;;4.47;2.22;;;;;;;19.12;92.42;101190.97;3581350;39;20118;-62
2021/05/18 13:55:04;;;;;;;3.25;2.35;;;;;;;18.70;91.99;101184.97;3581054;39;20129;-62
2021/05/18 13:57:30;;;;;;;5.22;2.45;;;;;;;18.86;92.18;101181.31;3580817;39;20338;-62
2021/05/18 13:59:56;;;;;;;6.18;4.13;;;;;;;18.56;76.27;101192.06;3581617;40;20063;-62
2021/05/18 14:02:23;;;;;;;6.32;3.13;;;;;;;19.13;80.01;101191.84;3581610;39;20132;-62
2021/05/18 14:04:49;;;;;;;6.30;3.15;;;;;;;19.16;74.59;101181.38;3581883;39;20122;-61
2021/05/18 14:07:53;;;;;;;5.88;2.50;;;;;;;18.42;88.90;101187.38;3581263;39;20050;-60
2021/05/18 14:10:18;;;;;;;4.63;2.50;;;;;;;19.21;84.67;101198.06;3580021;39;20478;-62
2021/05/18 14:12:44;;;;;;;3.00;2.10;;;;;;;19.85;77.04;101195.88;3582031;39;20048;-61
2021/05/18 14:15:11;;;;;;;6.15;2.10;;;;;;;19.13;77.35;101194.56;3581048;40;20434;-62
2021/05/18 14:17:38;;;;;;;4.05;2.92;;;;;;;18.44;87.86;101189.94;3582160;39;20046;-62
2021/05/18 14:20:06;;;;;;;5.65;2.88;;;;;;;19.29;92.56;101204.44;3579514;39;20033;-62
2021/05/18 14:22:32;;;;;;;4.47;2.95;;;;;;;18.58;90.10;101199.19;3580360;39;20061;-62
2021/05/18 14:25:04;;;;;;;6.43;3.20;;;;;;;17.78;99.03;101210.09;3567310;39;603214;-61
2021/05/18 14:27:31;;;;;;;7.40;3.25;;;;;;;17.10;100.00;101212.28;3584200;39;20044;-62
2021/05/18 14:29:57;;;;;;;6.03;3.40;;;;;;;18.14;100.00;101206.94;3582762;39;20423;-61
2021/05/18 14:32:23;;;;;;;6.47;3.60;;;;;;;18.59;93.17;101206.34;3582265;39;20041;-62
2021/05/18 14:34:49;;;;;;;5.75;3.67;;;;;;;18.70;99.16;101209.50;3583201;39;20122;-62
2021/05/18 14:37:16;;;;;;;4.93;2.90;;;;;;;18.20;97.68;101210.84;3580811;39;20646;-61
2021/05/18 14:39:54;;;;;;;6.43;3.42;;;;;;;18.51;100.00;101218.16;3578468;40;20059;-61
2021/05/18 14:45:02;;;;;;;5.28;2.80;;;;;;;18.77;92.37;101216.97;3582035;39;20341;-62
2021/05/18 14:47:31;;;;;;;7.00;3.33;;;;;;;17.68;100.00;101223.94;3581790;40;20052;-62
2021/05/18 14:55:28;;;;;;;3.85;2.70;;;;;;;18.20;99.85;101221.75;3579787;39;20440;-62
2021/05/18 14:57:54;;;;;;;6.65;2.42;;;;;;;18.35;90.38;101219.94;3579543;39;20040;-62
2021/05/18 15:00:21;;;;;;;5.05;2.72;;;;;;;17.54;99.76;101227.38;3579671;39;20073;-62
2021/05/18 15:02:48;;;;;;;6.03;3.15;;;;;;;17.97;100.00;101222.50;3579192;39;20044;-61
2021/05/18 15:05:16;;;;;;;5.07;3.22;;;;;;;17.69;98.99;101227.50;3573801;39;20056;-61
2021/05/18 15:07:42;;;;;;;6.00;2.60;;;;;;;17.83;100.00;101228.66;3571250;40;20115;-62
2021/05/18 15:10:10;;;;;;;3.80;2.30;;;;;;;18.62;97.03;101225.06;3570942;40;20667;-61
2021/05/18 15:12:35;;;;;;;5.28;2.40;;;;;;;18.64;91.48;101228.47;3570104;40;20553;-62
2021/05/18 15:15:01;;;;;;;4.05;2.70;;;;;;;17.91;98.79;101222.38;3570273;40;20075;-62
2021/05/18 15:17:27;;;;;;;5.95;3.25;;;;;;;17.31;100.00;101241.69;3576126;39;20052;-61
2021/05/18 15:19:54;;;;;;;4.80;2.25;;;;;;;16.49;100.00;101240.72;3576358;39;20277;-61
2021/05/18 15:22:21;;;;;;;5.50;2.60;;;;;;;16.81;100.00;101243.50;3578919;39;20127;-61
2021/05/18 15:24:47;;;;;;;6.00;2.70;;;;;;;17.97;100.00;101240.72;3580081;39;20040;-61
2021/05/18 15:27:13;;;;;;;5.13;2.08;;;;;;;17.26;100.00;101244.06;3580365;39;20048;-61
2021/05/18 15:29:39;;;;;;;3.45;2.05;;;;;;;17.45;100.00;101248.31;3579945;39;20311;-61
2021/05/18 15:32:06;;;;;;;3.65;2.20;;;;;;;17.75;100.00;101245.00;3574259;39;20044;-61
2021/05/18 15:34:32;;;;;;;9.07;2.60;;;;;;;18.49;97.66;101240.16;3580102;39;20041;-61
2021/05/18 15:36:58;;;;;;;5.97;2.28;;;;;;;18.54;92.62;101254.09;3578966;40;20044;-61